sensor_id;sensor_type;location;lat;lon;timestamp;P1;durP1;ratioP1;P2;durP2;ratioP2
21235;SDS011;10775;42.678;26.324;2023-03-01T00:01:32;2.40;;;1.00;;
21235;SDS011;10775;42.678;26.324;2023-03-01T00:03:58;1.63;;;1.10;;
21235;SDS011;10775;42.678;26.324;2023-03-01T00:06:24;2.72;;;1.05;;
21235;SDS011;10775;42.678;26.324;2023-03-01T00:08:51;1.20;;;0.85;;
21235;SDS011;10775;42.678;26.324;2023-03-01T00:11:18;1.67;;;1.08;;
21235;SDS011;10775;42.678;26.324;2023-03-01T00:13:55;2.10;;;1.20;;
21235;SDS011;10775;42.678;26.324;2023-03-01T00:16:29;1.88;;;1.00;;
21235;SDS011;10775;42.678;26.324;2023-03-01T00:18:59;2.25;;;1.08;;
21235;SDS011;10775;42.678;26.324;2023-03-01T00:21:25;2.25;;;1.20;;
21235;SDS011;10775;42.678;26.324;2023-03-01T00:23:51;3.15;;;1.10;;
21235;SDS011;10775;42.678;26.324;2023-03-01T00:26:17;2.13;;;0.88;;
21235;SDS011;10775;42.678;26.324;2023-03-01T00:28:44;2.08;;;1.15;;
21235;SDS011;10775;42.678;26.324;2023-03-01T00:31:14;3.03;;;1.63;;
21235;SDS011;10775;42.678;26.324;2023-03-01T00:33:41;1.90;;;1.30;;
21235;SDS011;10775;42.678;26.324;2023-03-01T00:36:07;1.95;;;1.30;;
21235;SDS011;10775;42.678;26.324;2023-03-01T00:38:34;2.33;;;1.45;;
21235;SDS011;10775;42.678;26.324;2023-03-01T00:41:05;2.28;;;1.35;;
21235;SDS011;10775;42.678;26.324;2023-03-01T00:43:32;1.80;;;0.80;;
21235;SDS011;10775;42.678;26.324;2023-03-01T00:46:08;1.40;;;0.90;;
21235;SDS011;10775;42.678;26.324;2023-03-01T00:48:39;2.35;;;1.25;;
21235;SDS011;10775;42.678;26.324;2023-03-01T00:51:09;1.90;;;1.13;;
21235;SDS011;10775;42.678;26.324;2023-03-01T00:54:01;3.25;;;1.30;;
21235;SDS011;10775;42.678;26.324;2023-03-01T00:56:27;1.95;;;1.30;;
21235;SDS011;10775;42.678;26.324;2023-03-01T00:58:54;1.65;;;1.10;;
21235;SDS011;10775;42.678;26.324;2023-03-01T01:01:25;2.22;;;1.10;;
21235;SDS011;10775;42.678;26.324;2023-03-01T01:03:57;1.85;;;0.82;;
21235;SDS011;10775;42.678;26.324;2023-03-01T01:06:34;2.13;;;0.88;;
21235;SDS011;10775;42.678;26.324;2023-03-01T01:09:05;1.48;;;0.88;;
21235;SDS011;10775;42.678;26.324;2023-03-01T01:11:32;1.92;;;0.90;;
21235;SDS011;10775;42.678;26.324;2023-03-01T01:14:00;1.40;;;0.93;;
21235;SDS011;10775;42.678;26.324;2023-03-01T01:16:26;1.65;;;1.08;;
21235;SDS011;10775;42.678;26.324;2023-03-01T01:18:53;1.30;;;0.80;;
21235;SDS011;10775;42.678;26.324;2023-03-01T01:21:19;1.48;;;0.90;;
21235;SDS011;10775;42.678;26.324;2023-03-01T01:23:46;1.27;;;0.80;;
21235;SDS011;10775;42.678;26.324;2023-03-01T01:26:13;1.20;;;0.60;;
21235;SDS011;10775;42.678;26.324;2023-03-01T01:28:41;1.00;;;0.70;;
21235;SDS011;10775;42.678;26.324;2023-03-01T01:31:07;1.40;;;0.70;;
21235;SDS011;10775;42.678;26.324;2023-03-01T01:33:33;1.45;;;0.90;;
21235;SDS011;10775;42.678;26.324;2023-03-01T01:35:59;1.33;;;0.77;;
21235;SDS011;10775;42.678;26.324;2023-03-01T01:38:25;1.15;;;0.70;;
21235;SDS011;10775;42.678;26.324;2023-03-01T01:40:50;1.20;;;0.60;;
21235;SDS011;10775;42.678;26.324;2023-03-01T01:43:21;1.42;;;0.90;;
21235;SDS011;10775;42.678;26.324;2023-03-01T01:45:50;1.52;;;0.80;;
21235;SDS011;10775;42.678;26.324;2023-03-01T01:48:20;1.33;;;0.70;;
21235;SDS011;10775;42.678;26.324;2023-03-01T01:50:55;1.73;;;0.73;;
21235;SDS011;10775;42.678;26.324;2023-03-01T01:53:24;1.55;;;1.05;;
21235;SDS011;10775;42.678;26.324;2023-03-01T01:55:52;1.83;;;0.90;;
21235;SDS011;10775;42.678;26.324;2023-03-01T01:58:22;1.50;;;1.02;;
21235;SDS011;10775;42.678;26.324;2023-03-01T02:00:50;1.55;;;1.00;;
21235;SDS011;10775;42.678;26.324;2023-03-01T02:03:20;1.58;;;0.95;;
21235;SDS011;10775;42.678;26.324;2023-03-01T02:05:56;1.55;;;0.95;;
21235;SDS011;10775;42.678;26.324;2023-03-01T02:08:27;1.50;;;0.68;;
21235;SDS011;10775;42.678;26.324;2023-03-01T02:10:55;1.08;;;0.60;;
21235;SDS011;10775;42.678;26.324;2023-03-01T02:13:22;1.67;;;0.70;;
21235;SDS011;10775;42.678;26.324;2023-03-01T02:15:48;1.73;;;1.00;;
21235;SDS011;10775;42.678;26.324;2023-03-01T02:18:14;1.60;;;1.00;;
21235;SDS011;10775;42.678;26.324;2023-03-01T02:23:21;2.10;;;0.90;;
21235;SDS011;10775;42.678;26.324;2023-03-01T02:28:40;1.25;;;1.10;;
21235;SDS011;10775;42.678;26.324;2023-03-01T02:31:08;0.98;;;0.73;;
21235;SDS011;10775;42.678;26.324;2023-03-01T02:33:54;1.10;;;0.80;;
21235;SDS011;10775;42.678;26.324;2023-03-01T02:36:22;1.52;;;0.85;;
21235;SDS011;10775;42.678;26.324;2023-03-01T02:38:55;1.55;;;0.75;;
21235;SDS011;10775;42.678;26.324;2023-03-01T02:41:23;1.37;;;0.70;;
21235;SDS011;10775;42.678;26.324;2023-03-01T02:43:50;0.80;;;0.60;;
21235;SDS011;10775;42.678;26.324;2023-03-01T02:53:52;1.83;;;1.23;;
21235;SDS011;10775;42.678;26.324;2023-03-01T02:56:20;2.45;;;1.23;;
21235;SDS011;10775;42.678;26.324;2023-03-01T02:58:46;2.92;;;1.20;;
21235;SDS011;10775;42.678;26.324;2023-03-01T03:03:41;1.80;;;0.80;;
21235;SDS011;10775;42.678;26.324;2023-03-01T03:06:07;1.45;;;0.75;;
21235;SDS011;10775;42.678;26.324;2023-03-01T03:08:33;1.25;;;0.70;;
21235;SDS011;10775;42.678;26.324;2023-03-01T03:10:58;0.70;;;0.40;;
21235;SDS011;10775;42.678;26.324;2023-03-01T03:13:24;1.48;;;0.70;;
21235;SDS011;10775;42.678;26.324;2023-03-01T03:15:54;2.28;;;0.52;;
21235;SDS011;10775;42.678;26.324;2023-03-01T03:18:20;0.95;;;0.68;;
21235;SDS011;10775;42.678;26.324;2023-03-01T03:20:47;0.70;;;0.60;;
21235;SDS011;10775;42.678;26.324;2023-03-01T03:23:17;1.48;;;0.68;;
21235;SDS011;10775;42.678;26.324;2023-03-01T03:25:43;1.55;;;0.70;;
21235;SDS011;10775;42.678;26.324;2023-03-01T03:28:08;1.08;;;0.52;;
21235;SDS011;10775;42.678;26.324;2023-03-01T03:30:38;1.17;;;0.50;;
21235;SDS011;10775;42.678;26.324;2023-03-01T03:33:05;1.05;;;0.80;;
21235;SDS011;10775;42.678;26.324;2023-03-01T03:35:33;0.90;;;0.60;;
21235;SDS011;10775;42.678;26.324;2023-03-01T03:38:05;1.75;;;0.70;;
21235;SDS011;10775;42.678;26.324;2023-03-01T03:43:21;1.02;;;0.70;;
21235;SDS011;10775;42.678;26.324;2023-03-01T03:46:05;1.00;;;0.50;;
21235;SDS011;10775;42.678;26.324;2023-03-01T03:48:35;1.50;;;0.90;;
21235;SDS011;10775;42.678;26.324;2023-03-01T03:51:02;1.13;;;0.73;;
21235;SDS011;10775;42.678;26.324;2023-03-01T03:53:30;1.40;;;0.68;;
21235;SDS011;10775;42.678;26.324;2023-03-01T03:55:56;1.35;;;0.90;;
21235;SDS011;10775;42.678;26.324;2023-03-01T04:03:50;1.55;;;0.73;;
21235;SDS011;10775;42.678;26.324;2023-03-01T04:06:19;1.13;;;0.63;;
21235;SDS011;10775;42.678;26.324;2023-03-01T04:08:44;0.70;;;0.60;;
21235;SDS011;10775;42.678;26.324;2023-03-01T04:11:10;1.00;;;0.65;;
21235;SDS011;10775;42.678;26.324;2023-03-01T04:13:52;0.90;;;0.52;;
21235;SDS011;10775;42.678;26.324;2023-03-01T04:16:19;1.05;;;0.60;;
21235;SDS011;10775;42.678;26.324;2023-03-01T04:18:45;1.65;;;0.77;;
21235;SDS011;10775;42.678;26.324;2023-03-01T04:21:10;0.93;;;0.57;;
21235;SDS011;10775;42.678;26.324;2023-03-01T04:23:36;0.88;;;0.50;;
21235;SDS011;10775;42.678;26.324;2023-03-01T04:26:03;0.60;;;0.40;;
21235;SDS011;10775;42.678;26.324;2023-03-01T04:28:30;0.88;;;0.55;;
21235;SDS011;10775;42.678;26.324;2023-03-01T04:31:07;0.98;;;0.55;;
21235;SDS011;10775;42.678;26.324;2023-03-01T04:33:45;1.05;;;0.65;;
21235;SDS011;10775;42.678;26.324;2023-03-01T04:36:13;1.88;;;0.98;;
21235;SDS011;10775;42.678;26.324;2023-03-01T04:38:40;1.45;;;1.05;;
21235;SDS011;10775;42.678;26.324;2023-03-01T04:41:06;2.42;;;1.05;;
21235;SDS011;10775;42.678;26.324;2023-03-01T04:43:33;3.17;;;1.90;;
21235;SDS011;10775;42.678;26.324;2023-03-01T04:46:00;3.05;;;1.80;;
21235;SDS011;10775;42.678;26.324;2023-03-01T04:48:28;3.90;;;2.05;;
21235;SDS011;10775;42.678;26.324;2023-03-01T04:50:53;2.83;;;1.70;;
21235;SDS011;10775;42.678;26.324;2023-03-01T04:53:19;2.67;;;1.42;;
21235;SDS011;10775;42.678;26.324;2023-03-01T04:55:44;2.33;;;1.15;;
21235;SDS011;10775;42.678;26.324;2023-03-01T04:58:10;1.77;;;1.15;;
21235;SDS011;10775;42.678;26.324;2023-03-01T05:00:35;2.50;;;1.08;;
21235;SDS011;10775;42.678;26.324;2023-03-01T05:03:01;4.25;;;1.30;;
21235;SDS011;10775;42.678;26.324;2023-03-01T05:05:30;1.15;;;0.73;;
21235;SDS011;10775;42.678;26.324;2023-03-01T05:07:58;1.40;;;0.88;;
21235;SDS011;10775;42.678;26.324;2023-03-01T05:10:26;1.55;;;1.00;;
21235;SDS011;10775;42.678;26.324;2023-03-01T05:12:54;2.85;;;1.25;;
21235;SDS011;10775;42.678;26.324;2023-03-01T05:15:22;1.48;;;0.82;;
21235;SDS011;10775;42.678;26.324;2023-03-01T05:17:50;2.25;;;0.90;;
21235;SDS011;10775;42.678;26.324;2023-03-01T05:20:17;1.48;;;0.90;;
21235;SDS011;10775;42.678;26.324;2023-03-01T05:22:42;1.13;;;0.70;;
21235;SDS011;10775;42.678;26.324;2023-03-01T05:25:08;1.30;;;0.82;;
21235;SDS011;10775;42.678;26.324;2023-03-01T05:27:34;0.90;;;0.70;;
21235;SDS011;10775;42.678;26.324;2023-03-01T05:30:00;0.70;;;0.70;;
21235;SDS011;10775;42.678;26.324;2023-03-01T05:32:40;1.42;;;0.80;;
21235;SDS011;10775;42.678;26.324;2023-03-01T05:35:14;0.90;;;0.68;;
21235;SDS011;10775;42.678;26.324;2023-03-01T05:37:44;1.77;;;0.85;;
21235;SDS011;10775;42.678;26.324;2023-03-01T05:40:12;1.00;;;0.65;;
21235;SDS011;10775;42.678;26.324;2023-03-01T05:42:58;0.82;;;0.60;;
21235;SDS011;10775;42.678;26.324;2023-03-01T05:45:25;1.17;;;0.68;;
21235;SDS011;10775;42.678;26.324;2023-03-01T05:47:51;1.30;;;0.82;;
21235;SDS011;10775;42.678;26.324;2023-03-01T05:50:19;1.90;;;0.77;;
21235;SDS011;10775;42.678;26.324;2023-03-01T05:52:47;1.13;;;0.70;;
21235;SDS011;10775;42.678;26.324;2023-03-01T05:55:14;2.60;;;0.93;;
21235;SDS011;10775;42.678;26.324;2023-03-01T05:57:41;1.33;;;0.70;;
21235;SDS011;10775;42.678;26.324;2023-03-01T06:00:07;5.28;;;1.55;;
21235;SDS011;10775;42.678;26.324;2023-03-01T06:02:34;3.00;;;0.90;;
21235;SDS011;10775;42.678;26.324;2023-03-01T06:04:59;1.10;;;0.73;;
21235;SDS011;10775;42.678;26.324;2023-03-01T06:07:25;3.55;;;1.02;;
21235;SDS011;10775;42.678;26.324;2023-03-01T06:09:51;2.47;;;1.17;;
21235;SDS011;10775;42.678;26.324;2023-03-01T06:12:16;1.10;;;0.70;;
21235;SDS011;10775;42.678;26.324;2023-03-01T06:14:42;1.58;;;0.73;;
21235;SDS011;10775;42.678;26.324;2023-03-01T06:17:07;5.25;;;2.53;;
21235;SDS011;10775;42.678;26.324;2023-03-01T06:19:33;14.98;;;6.45;;
21235;SDS011;10775;42.678;26.324;2023-03-01T06:21:58;5.68;;;2.45;;
21235;SDS011;10775;42.678;26.324;2023-03-01T06:24:24;4.28;;;2.22;;
21235;SDS011;10775;42.678;26.324;2023-03-01T06:26:49;3.15;;;1.95;;
21235;SDS011;10775;42.678;26.324;2023-03-01T06:29:18;3.72;;;1.90;;
21235;SDS011;10775;42.678;26.324;2023-03-01T06:31:44;2.15;;;1.27;;
21235;SDS011;10775;42.678;26.324;2023-03-01T06:34:10;2.33;;;1.27;;
21235;SDS011;10775;42.678;26.324;2023-03-01T06:36:38;2.72;;;1.70;;
21235;SDS011;10775;42.678;26.324;2023-03-01T06:39:05;3.10;;;2.03;;
21235;SDS011;10775;42.678;26.324;2023-03-01T06:41:31;2.75;;;1.55;;
21235;SDS011;10775;42.678;26.324;2023-03-01T06:43:57;4.25;;;2.17;;
21235;SDS011;10775;42.678;26.324;2023-03-01T06:46:23;5.22;;;2.50;;
21235;SDS011;10775;42.678;26.324;2023-03-01T06:48:49;4.13;;;2.15;;
21235;SDS011;10775;42.678;26.324;2023-03-01T06:51:14;3.40;;;2.33;;
21235;SDS011;10775;42.678;26.324;2023-03-01T06:53:40;7.75;;;3.03;;
21235;SDS011;10775;42.678;26.324;2023-03-01T06:56:05;4.63;;;2.40;;
21235;SDS011;10775;42.678;26.324;2023-03-01T06:58:31;7.07;;;2.50;;
21235;SDS011;10775;42.678;26.324;2023-03-01T07:00:56;3.90;;;2.33;;
21235;SDS011;10775;42.678;26.324;2023-03-01T07:03:22;4.20;;;2.92;;
21235;SDS011;10775;42.678;26.324;2023-03-01T07:05:50;4.78;;;2.75;;
21235;SDS011;10775;42.678;26.324;2023-03-01T07:08:19;6.95;;;3.53;;
21235;SDS011;10775;42.678;26.324;2023-03-01T07:10:45;5.35;;;3.03;;
21235;SDS011;10775;42.678;26.324;2023-03-01T07:13:10;4.13;;;2.63;;
21235;SDS011;10775;42.678;26.324;2023-03-01T07:15:36;4.65;;;2.55;;
21235;SDS011;10775;42.678;26.324;2023-03-01T07:18:01;4.30;;;2.47;;
21235;SDS011;10775;42.678;26.324;2023-03-01T07:20:27;7.47;;;3.10;;
21235;SDS011;10775;42.678;26.324;2023-03-01T07:22:53;4.70;;;2.60;;
21235;SDS011;10775;42.678;26.324;2023-03-01T07:25:21;7.28;;;2.65;;
21235;SDS011;10775;42.678;26.324;2023-03-01T07:27:50;5.72;;;3.33;;
21235;SDS011;10775;42.678;26.324;2023-03-01T07:30:17;4.28;;;2.85;;
21235;SDS011;10775;42.678;26.324;2023-03-01T07:32:43;9.38;;;5.10;;
21235;SDS011;10775;42.678;26.324;2023-03-01T07:35:08;5.72;;;4.43;;
21235;SDS011;10775;42.678;26.324;2023-03-01T07:37:34;5.97;;;4.15;;
21235;SDS011;10775;42.678;26.324;2023-03-01T07:39:59;6.35;;;4.63;;
21235;SDS011;10775;42.678;26.324;2023-03-01T07:42:24;7.78;;;5.00;;
21235;SDS011;10775;42.678;26.324;2023-03-01T07:44:50;7.05;;;4.43;;
21235;SDS011;10775;42.678;26.324;2023-03-01T07:47:15;7.57;;;5.18;;
21235;SDS011;10775;42.678;26.324;2023-03-01T07:49:41;5.97;;;3.72;;
21235;SDS011;10775;42.678;26.324;2023-03-01T07:52:06;6.25;;;3.42;;
21235;SDS011;10775;42.678;26.324;2023-03-01T07:54:34;6.30;;;3.92;;
21235;SDS011;10775;42.678;26.324;2023-03-01T07:56:59;4.22;;;3.10;;
21235;SDS011;10775;42.678;26.324;2023-03-01T07:59:25;6.25;;;4.05;;
21235;SDS011;10775;42.678;26.324;2023-03-01T08:01:54;5.30;;;3.53;;
21235;SDS011;10775;42.678;26.324;2023-03-01T08:04:23;11.52;;;8.10;;
21235;SDS011;10775;42.678;26.324;2023-03-01T08:06:50;10.00;;;7.22;;
21235;SDS011;10775;42.678;26.324;2023-03-01T08:09:16;15.20;;;6.78;;
21235;SDS011;10775;42.678;26.324;2023-03-01T08:11:41;16.13;;;8.00;;
21235;SDS011;10775;42.678;26.324;2023-03-01T08:14:07;11.13;;;5.10;;
21235;SDS011;10775;42.678;26.324;2023-03-01T08:16:32;6.13;;;3.20;;
21235;SDS011;10775;42.678;26.324;2023-03-01T08:19:03;13.82;;;6.28;;
21235;SDS011;10775;42.678;26.324;2023-03-01T08:21:30;4.75;;;2.10;;
21235;SDS011;10775;42.678;26.324;2023-03-01T08:23:55;31.98;;;14.00;;
21235;SDS011;10775;42.678;26.324;2023-03-01T08:26:21;5.90;;;3.67;;
21235;SDS011;10775;42.678;26.324;2023-03-01T08:28:47;3.85;;;2.15;;
21235;SDS011;10775;42.678;26.324;2023-03-01T08:31:24;3.03;;;1.92;;
21235;SDS011;10775;42.678;26.324;2023-03-01T08:33:51;2.70;;;1.50;;
21235;SDS011;10775;42.678;26.324;2023-03-01T08:36:25;2.80;;;1.83;;
21235;SDS011;10775;42.678;26.324;2023-03-01T08:38:53;4.60;;;2.10;;
21235;SDS011;10775;42.678;26.324;2023-03-01T08:41:19;3.30;;;1.90;;
21235;SDS011;10775;42.678;26.324;2023-03-01T08:43:45;6.32;;;2.13;;
21235;SDS011;10775;42.678;26.324;2023-03-01T08:46:11;3.22;;;2.03;;
21235;SDS011;10775;42.678;26.324;2023-03-01T08:48:37;6.47;;;2.00;;
21235;SDS011;10775;42.678;26.324;2023-03-01T08:51:07;5.38;;;1.92;;
21235;SDS011;10775;42.678;26.324;2023-03-01T08:53:39;8.75;;;3.20;;
21235;SDS011;10775;42.678;26.324;2023-03-01T08:56:05;6.63;;;2.65;;
21235;SDS011;10775;42.678;26.324;2023-03-01T08:58:31;5.20;;;1.98;;
21235;SDS011;10775;42.678;26.324;2023-03-01T09:00:57;6.30;;;3.08;;
21235;SDS011;10775;42.678;26.324;2023-03-01T09:03:23;10.23;;;3.05;;
21235;SDS011;10775;42.678;26.324;2023-03-01T09:05:50;7.35;;;2.67;;
21235;SDS011;10775;42.678;26.324;2023-03-01T09:08:17;9.43;;;4.00;;
21235;SDS011;10775;42.678;26.324;2023-03-01T09:10:43;7.68;;;2.78;;
21235;SDS011;10775;42.678;26.324;2023-03-01T09:13:08;6.65;;;2.60;;
21235;SDS011;10775;42.678;26.324;2023-03-01T09:15:35;4.90;;;2.28;;
21235;SDS011;10775;42.678;26.324;2023-03-01T09:18:02;7.53;;;2.58;;
21235;SDS011;10775;42.678;26.324;2023-03-01T09:20:27;6.70;;;2.70;;
21235;SDS011;10775;42.678;26.324;2023-03-01T09:22:53;5.60;;;2.70;;
21235;SDS011;10775;42.678;26.324;2023-03-01T09:25:18;7.60;;;2.22;;
21235;SDS011;10775;42.678;26.324;2023-03-01T09:27:44;6.82;;;2.65;;
21235;SDS011;10775;42.678;26.324;2023-03-01T09:30:09;5.93;;;2.88;;
21235;SDS011;10775;42.678;26.324;2023-03-01T09:32:36;5.82;;;2.55;;
21235;SDS011;10775;42.678;26.324;2023-03-01T09:35:02;5.88;;;2.53;;
21235;SDS011;10775;42.678;26.324;2023-03-01T09:37:33;4.25;;;2.45;;
21235;SDS011;10775;42.678;26.324;2023-03-01T09:40:00;4.85;;;2.60;;
21235;SDS011;10775;42.678;26.324;2023-03-01T09:42:26;6.82;;;2.40;;
21235;SDS011;10775;42.678;26.324;2023-03-01T09:45:06;6.25;;;2.72;;
21235;SDS011;10775;42.678;26.324;2023-03-01T09:47:41;4.35;;;2.13;;
21235;SDS011;10775;42.678;26.324;2023-03-01T09:50:14;4.53;;;1.75;;
21235;SDS011;10775;42.678;26.324;2023-03-01T09:52:46;7.38;;;2.25;;
21235;SDS011;10775;42.678;26.324;2023-03-01T09:55:20;6.68;;;2.00;;
21235;SDS011;10775;42.678;26.324;2023-03-01T10:09:59;5.63;;;2.05;;
21235;SDS011;10775;42.678;26.324;2023-03-01T10:12:35;5.43;;;2.42;;
21235;SDS011;10775;42.678;26.324;2023-03-01T10:17:51;3.85;;;1.83;;
21235;SDS011;10775;42.678;26.324;2023-03-01T10:20:25;4.43;;;1.90;;
21235;SDS011;10775;42.678;26.324;2023-03-01T10:22:54;3.95;;;1.98;;
21235;SDS011;10775;42.678;26.324;2023-03-01T10:31:15;4.57;;;2.00;;
21235;SDS011;10775;42.678;26.324;2023-03-01T10:33:45;4.50;;;2.08;;
21235;SDS011;10775;42.678;26.324;2023-03-01T10:36:12;4.05;;;2.17;;
21235;SDS011;10775;42.678;26.324;2023-03-01T10:41:22;6.97;;;2.97;;
21235;SDS011;10775;42.678;26.324;2023-03-01T10:43:52;4.93;;;2.75;;
21235;SDS011;10775;42.678;26.324;2023-03-01T10:51:30;4.18;;;1.48;;
21235;SDS011;10775;42.678;26.324;2023-03-01T10:53:55;5.47;;;2.50;;
21235;SDS011;10775;42.678;26.324;2023-03-01T10:56:21;3.35;;;1.77;;
21235;SDS011;10775;42.678;26.324;2023-03-01T10:58:57;14.68;;;8.45;;
21235;SDS011;10775;42.678;26.324;2023-03-01T11:01:28;5.20;;;2.25;;
21235;SDS011;10775;42.678;26.324;2023-03-01T11:06:31;8.88;;;4.70;;
21235;SDS011;10775;42.678;26.324;2023-03-01T11:09:11;6.32;;;3.00;;
21235;SDS011;10775;42.678;26.324;2023-03-01T11:11:43;6.18;;;3.10;;
21235;SDS011;10775;42.678;26.324;2023-03-01T11:16:44;7.00;;;3.25;;
21235;SDS011;10775;42.678;26.324;2023-03-01T11:21:36;11.18;;;3.25;;
21235;SDS011;10775;42.678;26.324;2023-03-01T11:24:09;5.20;;;2.60;;
21235;SDS011;10775;42.678;26.324;2023-03-01T11:26:39;5.35;;;2.35;;
21235;SDS011;10775;42.678;26.324;2023-03-01T11:29:12;4.75;;;2.40;;
21235;SDS011;10775;42.678;26.324;2023-03-01T11:31:54;4.50;;;2.30;;
21235;SDS011;10775;42.678;26.324;2023-03-01T11:34:36;4.10;;;1.90;;
21235;SDS011;10775;42.678;26.324;2023-03-01T11:37:20;4.00;;;2.05;;
21235;SDS011;10775;42.678;26.324;2023-03-01T11:42:46;4.43;;;1.92;;
21235;SDS011;10775;42.678;26.324;2023-03-01T11:45:18;7.65;;;3.70;;
21235;SDS011;10775;42.678;26.324;2023-03-01T11:47:52;5.80;;;2.20;;
21235;SDS011;10775;42.678;26.324;2023-03-01T11:50:41;4.88;;;2.17;;
21235;SDS011;10775;42.678;26.324;2023-03-01T11:56:27;6.18;;;2.35;;
21235;SDS011;10775;42.678;26.324;2023-03-01T12:35:47;13.80;;;4.15;;
21235;SDS011;10775;42.678;26.324;2023-03-01T12:46:18;14.50;;;3.50;;
21235;SDS011;10775;42.678;26.324;2023-03-01T12:49:02;19.50;;;9.20;;
21235;SDS011;10775;42.678;26.324;2023-03-01T12:51:30;15.27;;;4.95;;
21235;SDS011;10775;42.678;26.324;2023-03-01T12:53:58;13.82;;;4.93;;
21235;SDS011;10775;42.678;26.324;2023-03-01T12:56:28;12.55;;;4.28;;
21235;SDS011;10775;42.678;26.324;2023-03-01T12:59:14;12.20;;;3.92;;
21235;SDS011;10775;42.678;26.324;2023-03-01T13:02:01;7.03;;;3.95;;
21235;SDS011;10775;42.678;26.324;2023-03-01T13:07:04;6.35;;;3.17;;
21235;SDS011;10775;42.678;26.324;2023-03-01T13:12:50;6.85;;;3.72;;
21235;SDS011;10775;42.678;26.324;2023-03-01T13:17:47;11.40;;;4.72;;
21235;SDS011;10775;42.678;26.324;2023-03-01T13:20:15;10.13;;;5.20;;
21235;SDS011;10775;42.678;26.324;2023-03-01T13:22:42;17.10;;;6.95;;
21235;SDS011;10775;42.678;26.324;2023-03-01T13:25:14;20.63;;;6.93;;
21235;SDS011;10775;42.678;26.324;2023-03-01T13:27:43;16.65;;;5.90;;
21235;SDS011;10775;42.678;26.324;2023-03-01T13:33:44;16.42;;;5.95;;
21235;SDS011;10775;42.678;26.324;2023-03-01T13:35:52;12.80;;;5.88;;
21235;SDS011;10775;42.678;26.324;2023-03-01T13:41:58;15.60;;;6.05;;
21235;SDS011;10775;42.678;26.324;2023-03-01T13:46:49;17.63;;;5.97;;
21235;SDS011;10775;42.678;26.324;2023-03-01T13:49:18;16.05;;;5.55;;
21235;SDS011;10775;42.678;26.324;2023-03-01T13:51:47;12.75;;;5.05;;
21235;SDS011;10775;42.678;26.324;2023-03-01T13:54:13;13.18;;;5.10;;
21235;SDS011;10775;42.678;26.324;2023-03-01T13:56:41;12.57;;;5.07;;
21235;SDS011;10775;42.678;26.324;2023-03-01T13:59:15;13.48;;;4.47;;
21235;SDS011;10775;42.678;26.324;2023-03-01T14:01:41;14.85;;;5.18;;
21235;SDS011;10775;42.678;26.324;2023-03-01T14:04:18;8.60;;;4.30;;
21235;SDS011;10775;42.678;26.324;2023-03-01T14:06:46;10.35;;;4.28;;
21235;SDS011;10775;42.678;26.324;2023-03-01T14:11:54;13.43;;;4.63;;
21235;SDS011;10775;42.678;26.324;2023-03-01T14:20:02;9.90;;;4.53;;
21235;SDS011;10775;42.678;26.324;2023-03-01T14:22:44;13.15;;;6.82;;
21235;SDS011;10775;42.678;26.324;2023-03-01T14:28:01;12.02;;;4.45;;
21235;SDS011;10775;42.678;26.324;2023-03-01T14:30:53;7.43;;;4.53;;
21235;SDS011;10775;42.678;26.324;2023-03-01T14:36:00;10.05;;;4.55;;
21235;SDS011;10775;42.678;26.324;2023-03-01T14:41:03;13.52;;;5.47;;
21235;SDS011;10775;42.678;26.324;2023-03-01T14:43:31;11.32;;;5.68;;
21235;SDS011;10775;42.678;26.324;2023-03-01T14:45:57;14.25;;;6.15;;
21235;SDS011;10775;42.678;26.324;2023-03-01T14:48:23;14.45;;;6.43;;
21235;SDS011;10775;42.678;26.324;2023-03-01T14:50:49;16.10;;;7.22;;
21235;SDS011;10775;42.678;26.324;2023-03-01T14:53:20;16.00;;;7.15;;
21235;SDS011;10775;42.678;26.324;2023-03-01T14:55:55;14.73;;;6.00;;
21235;SDS011;10775;42.678;26.324;2023-03-01T14:58:27;10.02;;;4.78;;
21235;SDS011;10775;42.678;26.324;2023-03-01T15:00:56;8.10;;;4.43;;
21235;SDS011;10775;42.678;26.324;2023-03-01T15:04:07;10.13;;;4.50;;
21235;SDS011;10775;42.678;26.324;2023-03-01T15:06:14;10.55;;;5.13;;
21235;SDS011;10775;42.678;26.324;2023-03-01T15:08:44;7.25;;;4.38;;
21235;SDS011;10775;42.678;26.324;2023-03-01T15:14:24;10.75;;;5.47;;
21235;SDS011;10775;42.678;26.324;2023-03-01T15:16:50;9.98;;;4.93;;
21235;SDS011;10775;42.678;26.324;2023-03-01T15:19:16;12.02;;;5.30;;
21235;SDS011;10775;42.678;26.324;2023-03-01T15:21:44;13.27;;;6.03;;
21235;SDS011;10775;42.678;26.324;2023-03-01T15:27:00;10.20;;;6.40;;
21235;SDS011;10775;42.678;26.324;2023-03-01T15:29:32;11.23;;;5.18;;
21235;SDS011;10775;42.678;26.324;2023-03-01T15:32:04;14.45;;;7.50;;
21235;SDS011;10775;42.678;26.324;2023-03-01T15:34:50;9.15;;;5.10;;
21235;SDS011;10775;42.678;26.324;2023-03-01T15:40:21;10.40;;;6.20;;
21235;SDS011;10775;42.678;26.324;2023-03-01T15:43:03;9.65;;;5.65;;
21235;SDS011;10775;42.678;26.324;2023-03-01T15:45:30;9.80;;;5.35;;
21235;SDS011;10775;42.678;26.324;2023-03-01T15:48:02;9.50;;;5.68;;
21235;SDS011;10775;42.678;26.324;2023-03-01T15:50:40;11.80;;;5.80;;
21235;SDS011;10775;42.678;26.324;2023-03-01T15:53:12;10.60;;;6.15;;
21235;SDS011;10775;42.678;26.324;2023-03-01T15:55:39;8.88;;;5.15;;
21235;SDS011;10775;42.678;26.324;2023-03-01T15:58:24;9.55;;;6.03;;
21235;SDS011;10775;42.678;26.324;2023-03-01T16:00:50;9.98;;;5.47;;
21235;SDS011;10775;42.678;26.324;2023-03-01T16:03:21;9.75;;;5.57;;
21235;SDS011;10775;42.678;26.324;2023-03-01T16:05:47;11.02;;;5.75;;
21235;SDS011;10775;42.678;26.324;2023-03-01T16:08:14;10.20;;;5.50;;
21235;SDS011;10775;42.678;26.324;2023-03-01T16:10:40;9.60;;;5.10;;
21235;SDS011;10775;42.678;26.324;2023-03-01T16:13:08;8.30;;;4.75;;
21235;SDS011;10775;42.678;26.324;2023-03-01T16:15:35;10.43;;;5.95;;
21235;SDS011;10775;42.678;26.324;2023-03-01T16:18:00;12.00;;;5.75;;
21235;SDS011;10775;42.678;26.324;2023-03-01T16:20:27;9.05;;;5.13;;
21235;SDS011;10775;42.678;26.324;2023-03-01T16:22:54;9.52;;;6.25;;
21235;SDS011;10775;42.678;26.324;2023-03-01T16:25:22;10.10;;;5.28;;
21235;SDS011;10775;42.678;26.324;2023-03-01T16:27:48;7.47;;;4.55;;
21235;SDS011;10775;42.678;26.324;2023-03-01T16:30:16;8.88;;;5.13;;
21235;SDS011;10775;42.678;26.324;2023-03-01T16:32:46;15.23;;;8.73;;
21235;SDS011;10775;42.678;26.324;2023-03-01T16:35:14;13.25;;;7.90;;
21235;SDS011;10775;42.678;26.324;2023-03-01T16:37:42;10.05;;;4.93;;
21235;SDS011;10775;42.678;26.324;2023-03-01T16:40:25;9.02;;;5.43;;
21235;SDS011;10775;42.678;26.324;2023-03-01T16:42:52;9.43;;;5.25;;
21235;SDS011;10775;42.678;26.324;2023-03-01T16:45:18;11.23;;;6.07;;
21235;SDS011;10775;42.678;26.324;2023-03-01T16:47:44;10.35;;;5.63;;
21235;SDS011;10775;42.678;26.324;2023-03-01T16:50:10;11.38;;;5.97;;
21235;SDS011;10775;42.678;26.324;2023-03-01T16:52:36;8.63;;;5.00;;
21235;SDS011;10775;42.678;26.324;2023-03-01T16:55:02;8.88;;;5.10;;
21235;SDS011;10775;42.678;26.324;2023-03-01T16:57:29;10.02;;;5.60;;
21235;SDS011;10775;42.678;26.324;2023-03-01T16:59:55;10.10;;;5.22;;
21235;SDS011;10775;42.678;26.324;2023-03-01T17:02:21;9.93;;;5.35;;
21235;SDS011;10775;42.678;26.324;2023-03-01T17:04:53;9.48;;;5.75;;
21235;SDS011;10775;42.678;26.324;2023-03-01T17:07:20;12.00;;;6.05;;
21235;SDS011;10775;42.678;26.324;2023-03-01T17:09:45;8.75;;;5.95;;
21235;SDS011;10775;42.678;26.324;2023-03-01T17:12:12;8.63;;;5.43;;
21235;SDS011;10775;42.678;26.324;2023-03-01T17:14:38;10.45;;;5.88;;